Time;durP1;ratioP1;P1;durP2;ratioP2;P2;SDS_P1;SDS_P2;PMS_P1;PMS_P2;Temp;Humidity;BMP_temperature;BMP_pressure;BME280_temperature;BME280_humidity;BME280_pressure;Samples;Min_cycle;Max_cycle;Signal;HPM_P1;HPM_P2
2021/12/17 00:00:18;;;;;;;11.83;6.03;;;;;;;0.52;82.86;100942.09;1746113;82;21455;-70
2021/12/17 00:05:32;;;;;;;8.73;6.05;;;;;;;0.56;83.04;100933.44;1746181;82;21176;-70
2021/12/17 00:07:51;;;;;;;10.25;5.47;;;;;;;0.60;83.08;100934.66;1746183;82;20963;-69
2021/12/17 00:10:18;;;;;;;12.45;5.62;;;;;;;0.61;82.93;100928.61;1746163;81;20982;-69
2021/12/17 00:12:45;;;;;;;12.15;6.97;;;;;;;0.61;82.79;100927.77;1746088;81;20924;-68
2021/12/17 00:15:13;;;;;;;8.28;5.75;;;;;;;0.60;82.70;100922.17;1746455;82;20988;-69
2021/12/17 00:17:51;;;;;;;10.03;5.60;;;;;;;0.57;82.68;100923.52;1746184;82;20932;-71
2021/12/17 00:52:34;;;;;;;6.10;4.60;;;;;;;0.76;82.91;100886.70;1860471;77;20950;-70
2021/12/17 00:55:01;;;;;;;8.53;4.65;;;;;;;0.72;82.84;100883.30;1860889;77;20902;-70
2021/12/17 00:57:35;;;;;;;5.65;4.75;;;;;;;0.68;82.88;100882.08;1860587;77;21101;-70
2021/12/17 00:59:57;;;;;;;7.10;4.70;;;;;;;0.65;82.92;100876.98;1859809;77;20907;-70
2021/12/17 01:02:29;;;;;;;6.60;4.30;;;;;;;0.62;83.00;100872.69;1860536;77;21444;-71
2021/12/17 01:05:04;;;;;;;6.42;4.20;;;;;;;0.59;83.11;100874.03;1796241;78;20884;-70
2021/12/17 01:07:34;;;;;;;7.87;4.47;;;;;;;0.57;83.19;100868.88;1796298;78;20939;-70
2021/12/17 01:10:05;;;;;;;6.72;4.92;;;;;;;0.56;83.19;100854.29;1826041;78;21162;-70
2021/12/17 01:12:34;;;;;;;5.55;3.80;;;;;;;0.55;83.21;100855.59;1784844;79;20931;-70
2021/12/17 01:15:04;;;;;;;5.75;3.92;;;;;;;0.53;83.39;100850.89;1799777;79;20938;-71
2021/12/17 01:17:41;;;;;;;5.83;3.92;;;;;;;0.56;83.47;100840.55;1792286;79;20891;-72
2021/12/17 01:20:28;;;;;;;5.30;2.85;;;;;;;0.56;83.46;100836.23;1800016;79;21345;-70
2021/12/17 01:25:39;;;;;;;6.10;4.37;;;;;;;0.60;83.63;100838.30;1800865;79;20911;-71
2021/12/17 01:36:16;;;;;;;4.33;3.92;;;;;;;0.68;83.29;100812.39;1784612;79;21959;-71
2021/12/17 01:44:08;;;;;;;7.08;4.53;;;;;;;0.58;83.29;100803.96;1801029;79;20939;-72
2021/12/17 01:46:37;;;;;;;5.03;4.22;;;;;;;0.59;83.36;100795.33;1801083;79;21041;-71
2021/12/17 02:00:11;;;;;;;8.55;6.35;;;;;;;0.82;83.55;100782.91;1801026;79;21468;-70
2021/12/17 02:02:47;;;;;;;7.33;5.90;;;;;;;0.83;83.50;100782.02;1801148;79;21144;-70
2021/12/17 02:05:15;;;;;;;9.48;6.65;;;;;;;0.85;83.30;100770.38;1801285;79;21377;-71
2021/12/17 02:07:43;;;;;;;8.05;7.10;;;;;;;0.84;83.20;100771.24;1801154;79;20892;-69
2021/12/17 02:11:28;;;;;;;6.35;5.55;;;;;;;0.82;83.30;100763.55;1801069;79;21006;-70
2021/12/17 02:29:13;;;;;;;8.23;6.67;;;;;;;1.03;83.53;100752.41;1784740;79;21147;-70
2021/12/17 02:31:32;;;;;;;7.20;6.45;;;;;;;1.07;83.41;100745.44;1783027;80;20967;-70
2021/12/17 02:34:11;;;;;;;8.13;6.37;;;;;;;1.08;83.34;100736.83;1784882;80;21428;-70
2021/12/17 02:36:36;;;;;;;7.58;6.60;;;;;;;1.09;83.20;100736.81;1784126;79;20876;-69
2021/12/17 02:40:00;;;;;;;8.95;6.37;;;;;;;1.10;83.11;100728.62;1756437;80;20991;-70
2021/12/17 02:47:12;;;;;;;9.05;5.70;;;;;;;1.10;83.18;100718.28;1784539;79;21346;-69
2021/12/17 02:49:43;;;;;;;5.65;5.08;;;;;;;1.13;83.25;100713.89;1756441;80;20896;-70
2021/12/17 02:52:10;;;;;;;8.35;5.22;;;;;;;1.18;83.21;100707.38;1784739;79;20932;-69
2021/12/17 02:54:37;;;;;;;8.13;6.37;;;;;;;1.21;83.14;100713.31;1756575;80;21134;-70
2021/12/17 02:57:05;;;;;;;8.15;6.80;;;;;;;1.24;83.05;100711.98;1784767;79;20916;-71
2021/12/17 02:59:33;;;;;;;8.60;7.00;;;;;;;1.27;83.05;100705.89;1784760;80;20967;-71
2021/12/17 03:01:59;;;;;;;13.70;10.08;;;;;;;1.31;83.01;100701.08;1784774;80;21441;-72
2021/12/17 03:04:28;;;;;;;14.47;10.00;;;;;;;1.34;82.88;100696.28;1784850;79;20915;-69
2021/12/17 03:06:55;;;;;;;12.00;9.65;;;;;;;1.37;82.76;100698.34;1784907;79;21165;-69
2021/12/17 03:09:38;;;;;;;16.12;12.70;;;;;;;1.38;82.67;100693.61;1784784;80;20935;-70
2021/12/17 03:11:53;;;;;;;10.63;6.97;;;;;;;1.39;82.60;100695.73;1781897;80;21456;-69
2021/12/17 03:14:20;;;;;;;9.13;8.08;;;;;;;1.41;82.64;100691.39;1793259;79;21010;-70
2021/12/17 03:16:54;;;;;;;9.45;7.17;;;;;;;1.42;82.69;100686.20;1797433;79;20931;-70
2021/12/17 03:23:28;;;;;;;10.45;8.20;;;;;;;1.47;82.75;100678.77;1795920;79;21221;-69
2021/12/17 03:24:42;;;;;;;10.08;7.22;;;;;;;1.60;82.70;100676.33;1797397;79;20975;-70
2021/12/17 03:27:09;;;;;;;10.32;7.03;;;;;;;1.66;82.62;100677.04;1797382;79;20931;-70
2021/12/17 03:29:37;;;;;;;9.15;6.97;;;;;;;1.71;82.44;100672.22;1797331;79;21361;-71
2021/12/17 03:32:05;;;;;;;12.45;8.95;;;;;;;1.73;82.23;100671.29;1797387;79;21093;-70
2021/12/17 03:34:32;;;;;;;11.90;8.68;;;;;;;1.71;82.05;100659.29;1797522;79;20970;-70
2021/12/17 03:36:59;;;;;;;15.45;7.80;;;;;;;1.72;81.86;100664.88;1797533;79;21465;-70
2021/12/17 03:39:30;;;;;;;14.25;7.70;;;;;;;1.69;81.77;100661.93;1796814;79;20896;-69
2021/12/17 03:42:00;;;;;;;11.63;8.08;;;;;;;1.66;81.78;100659.39;1797669;79;20919;-70
2021/12/17 03:44:30;;;;;;;15.70;8.63;;;;;;;1.65;81.84;100660.30;1796364;79;21981;-71
2021/12/17 03:47:03;;;;;;;15.23;8.63;;;;;;;1.67;82.00;100657.23;1797543;79;20883;-70
2021/12/17 03:49:35;;;;;;;13.98;8.80;;;;;;;1.69;82.02;100652.88;1796196;79;20932;-70
2021/12/17 03:52:06;;;;;;;20.00;10.08;;;;;;;1.73;82.10;100656.23;1797173;79;21469;-70
2021/12/17 03:54:36;;;;;;;20.25;11.30;;;;;;;1.76;82.15;100651.84;1797948;79;20926;-71
2021/12/17 03:57:10;;;;;;;20.52;10.50;;;;;;;1.81;82.17;100642.23;1797671;79;21152;-70
2021/12/17 03:59:36;;;;;;;20.15;11.33;;;;;;;1.88;82.10;100639.06;1797831;79;21006;-70
2021/12/17 04:02:03;;;;;;;21.85;11.88;;;;;;;1.94;82.04;100641.52;1797561;79;20924;-70
2021/12/17 04:04:30;;;;;;;24.85;13.35;;;;;;;1.99;81.90;100642.24;1797439;79;20935;-71
2021/12/17 04:07:16;;;;;;;28.80;13.10;;;;;;;2.02;81.75;100638.31;1797591;79;20864;-71
2021/12/17 04:09:58;;;;;;;34.88;16.55;;;;;;;2.03;81.48;100644.33;1734435;79;21141;-72
2021/12/17 04:12:41;;;;;;;30.55;14.13;;;;;;;2.02;81.23;100635.72;1797339;79;20904;-71
2021/12/17 04:15:06;;;;;;;34.73;18.57;;;;;;;1.97;81.07;100637.55;1796509;79;21330;-71
2021/12/17 04:17:42;;;;;;;39.65;19.85;;;;;;;1.91;81.05;100627.80;1797836;79;20904;-70
2021/12/17 04:20:06;;;;;;;57.50;26.00;;;;;;;1.88;81.16;100622.26;1796308;79;20917;-70
2021/12/17 04:22:35;;;;;;;55.23;23.80;;;;;;;1.86;81.23;100625.33;1797467;79;20916;-70
2021/12/17 04:25:04;;;;;;;45.12;22.98;;;;;;;1.86;81.34;100622.29;1797432;79;21436;-70
2021/12/17 04:27:33;;;;;;;49.63;22.48;;;;;;;1.88;81.46;100621.42;1797413;79;20919;-70
2021/12/17 04:30:01;;;;;;;48.08;21.40;;;;;;;1.91;81.50;100621.33;1797323;79;20943;-70
2021/12/17 04:32:29;;;;;;;50.52;21.35;;;;;;;1.92;81.51;100621.30;1797479;79;21079;-70
2021/12/17 04:34:56;;;;;;;51.10;21.20;;;;;;;1.93;81.43;100619.11;1797449;79;21972;-71
2021/12/17 04:37:24;;;;;;;56.02;20.90;;;;;;;1.93;81.27;100618.27;1796645;79;21448;-70
2021/12/17 04:39:53;;;;;;;53.65;20.40;;;;;;;1.91;81.18;100617.45;1796771;79;21515;-70
2021/12/17 04:42:41;;;;;;;45.60;21.07;;;;;;;1.89;80.96;100614.05;1797448;79;21448;-69
2021/12/17 04:44:56;;;;;;;45.67;19.73;;;;;;;1.85;80.88;100608.12;1793581;79;21524;-71
2021/12/17 05:01:28;;;;;;;57.53;27.30;;;;;;;1.84;81.57;100594.32;1780816;77;20939;-78
2021/12/17 05:03:56;;;;;;;59.48;29.98;;;;;;;1.89;81.54;100592.07;1727835;83;20975;-78
2021/12/17 05:06:28;;;;;;;61.08;28.07;;;;;;;1.90;81.49;100591.20;1727975;82;21372;-80
2021/12/17 05:08:59;;;;;;;59.08;26.93;;;;;;;1.89;81.39;100585.61;1727297;83;20999;-80
2021/12/17 05:11:48;;;;;;;56.75;26.73;;;;;;;1.88;81.25;100586.52;1727845;82;20924;-78
2021/12/17 05:20:23;;;;;;;56.28;27.00;;;;;;;1.82;81.32;100583.62;1728233;81;20983;-79
2021/12/17 05:21:58;;;;;;;66.28;30.85;;;;;;;1.81;81.44;100589.23;1718652;82;20995;-80
2021/12/17 05:24:25;;;;;;;67.65;33.60;;;;;;;1.81;81.53;100587.95;1728070;83;20991;-79
2021/12/17 05:26:52;;;;;;;68.33;33.83;;;;;;;1.82;81.63;100582.33;1727713;83;21913;-78
2021/12/17 05:29:19;;;;;;;73.78;35.05;;;;;;;1.84;81.69;100585.73;1727927;81;20920;-78
2021/12/17 05:31:46;;;;;;;78.22;37.50;;;;;;;1.88;81.67;100582.63;1727792;83;20987;-79
2021/12/17 05:34:13;;;;;;;81.75;36.83;;;;;;;1.90;81.59;100579.56;1727665;83;21532;-78
2021/12/17 05:36:50;;;;;;;77.70;36.30;;;;;;;1.90;81.42;100584.28;1728028;81;21476;-78
2021/12/17 05:39:19;;;;;;;77.60;34.83;;;;;;;1.90;81.31;100580.41;1728333;82;21109;-78
2021/12/17 05:41:46;;;;;;;80.03;39.67;;;;;;;1.89;81.22;100583.02;1727707;83;21473;-79
2021/12/17 05:44:32;;;;;;;77.37;36.95;;;;;;;1.85;81.07;100581.82;1727854;83;20868;-78
2021/12/17 05:46:59;;;;;;;76.05;35.50;;;;;;;1.82;81.32;100579.32;1727789;83;20979;-77
2021/12/17 05:49:28;;;;;;;69.27;35.45;;;;;;;1.83;81.46;100577.13;1727980;81;20979;-77
2021/12/17 05:51:56;;;;;;;74.60;35.05;;;;;;;1.85;81.58;100575.80;1727766;83;21145;-76
2021/12/17 05:54:24;;;;;;;76.85;37.13;;;;;;;1.87;81.66;100572.74;1727564;83;20901;-78
2021/12/17 05:56:52;;;;;;;77.32;37.53;;;;;;;1.90;81.69;100573.95;1727704;83;21062;-78
2021/12/17 05:59:20;;;;;;;82.27;39.73;;;;;;;1.93;81.71;100578.19;1727877;83;20951;-78
2021/12/17 06:01:48;;;;;;;78.70;38.95;;;;;;;1.95;81.67;100576.41;1727694;82;20920;-78
2021/12/17 06:04:15;;;;;;;82.30;38.30;;;;;;;1.96;81.48;100578.97;1728947;83;21143;-77
2021/12/17 06:06:53;;;;;;;75.55;39.55;;;;;;;1.94;81.34;100572.98;1729007;83;20864;-77
2021/12/17 06:09:21;;;;;;;77.30;39.45;;;;;;;1.94;81.20;100574.28;1727949;82;21049;-78
2021/12/17 06:11:49;;;;;;;72.32;35.33;;;;;;;1.93;81.14;100569.14;1727719;83;20963;-80
2021/12/17 06:14:17;;;;;;;73.02;35.38;;;;;;;1.91;81.17;100569.16;1727790;83;21368;-78
2021/12/17 06:16:44;;;;;;;78.05;36.35;;;;;;;1.88;81.23;100570.55;1727969;83;21151;-78
2021/12/17 06:19:14;;;;;;;78.28;38.58;;;;;;;1.90;81.37;100572.66;1728235;83;20904;-78
2021/12/17 06:21:42;;;;;;;72.10;34.75;;;;;;;1.92;81.51;100566.16;1729282;83;20856;-80
2021/12/17 06:24:09;;;;;;;77.30;36.98;;;;;;;1.96;81.58;100568.63;1728861;81;21481;-77
2021/12/17 06:26:37;;;;;;;70.87;36.25;;;;;;;2.01;81.59;100578.85;1727738;81;20916;-80
2021/12/17 06:29:05;;;;;;;81.65;35.98;;;;;;;2.03;81.60;100571.91;1727749;83;21136;-78
2021/12/17 06:31:33;;;;;;;71.40;34.55;;;;;;;2.05;81.57;100570.97;1728509;83;21326;-76
2021/12/17 06:34:00;;;;;;;72.85;33.85;;;;;;;2.08;81.46;100567.00;1727694;83;20908;-76
2021/12/17 06:36:27;;;;;;;74.07;35.90;;;;;;;2.10;81.26;100569.56;1727784;81;20999;-78
2021/12/17 06:38:54;;;;;;;67.32;33.20;;;;;;;2.08;81.05;100559.24;1727676;83;20932;-76
2021/12/17 06:41:23;;;;;;;63.15;29.23;;;;;;;2.05;80.93;100567.09;1727843;83;21141;-77
2021/12/17 06:43:50;;;;;;;59.18;28.07;;;;;;;2.00;80.97;100561.20;1727565;83;20967;-77
2021/12/17 06:46:25;;;;;;;60.60;29.95;;;;;;;1.97;81.15;100562.55;1727733;82;20896;-77
2021/12/17 06:48:56;;;;;;;60.90;29.27;;;;;;;2.01;81.49;100560.75;1727898;81;20976;-76
2021/12/17 07:11:16;;;;;;;66.90;32.42;;;;;;;2.35;81.13;100573.64;1727710;82;20900;-75
2021/12/17 07:22:03;;;;;;;61.35;31.65;;;;;;;2.28;80.94;100569.52;1727714;83;21137;-79
2021/12/17 07:32:43;;;;;;;62.00;31.70;;;;;;;2.51;81.40;100570.18;1784752;80;20880;-83
2021/12/17 07:40:09;;;;;;;53.87;31.90;;;;;;;2.56;81.04;100564.91;1789435;80;20856;-76
2021/12/17 07:42:39;;;;;;;42.35;25.17;;;;;;;2.55;80.98;100564.03;1788085;80;21460;-77
2021/12/17 07:45:26;;;;;;;35.60;22.20;;;;;;;2.53;80.93;100559.34;1787306;80;20892;-76
2021/12/17 07:47:57;;;;;;;27.90;16.73;;;;;;;2.49;81.13;100561.19;1787303;80;21791;-77
2021/12/17 07:50:32;;;;;;;28.55;17.55;;;;;;;2.46;81.04;100569.02;1787357;80;21105;-75
2021/12/17 07:53:09;;;;;;;21.15;13.50;;;;;;;2.42;81.17;100575.19;1789092;80;20892;-76
2021/12/17 07:55:39;;;;;;;20.95;12.53;;;;;;;2.39;81.15;100567.94;1774221;80;21469;-77
2021/12/17 07:58:07;;;;;;;18.85;12.15;;;;;;;2.35;81.17;100572.80;1789192;80;21006;-76
2021/12/17 08:00:36;;;;;;;16.10;11.25;;;;;;;2.30;81.25;100570.33;1789226;80;21531;-76
2021/12/17 08:03:03;;;;;;;20.85;13.00;;;;;;;2.26;81.47;100572.14;1789411;80;20884;-76
2021/12/17 08:05:34;;;;;;;14.43;10.90;;;;;;;2.23;81.50;100565.77;1777442;80;20874;-78
2021/12/17 08:08:02;;;;;;;16.93;11.22;;;;;;;2.17;81.47;100562.03;1789306;80;20904;-77
2021/12/17 08:10:32;;;;;;;17.07;10.23;;;;;;;2.17;81.77;100565.92;1789335;80;20982;-77
2021/12/17 08:12:58;;;;;;;14.95;10.65;;;;;;;2.20;81.82;100559.81;1789382;80;21515;-77
2021/12/17 08:15:32;;;;;;;13.70;8.78;;;;;;;2.21;81.67;100559.78;1789155;79;20849;-75
2021/12/17 08:18:18;;;;;;;13.72;8.38;;;;;;;2.20;81.74;100555.51;1788274;80;20998;-77
2021/12/17 08:24:02;;;;;;;10.38;7.33;;;;;;;2.23;82.16;100558.45;1789454;80;20955;-74
2021/12/17 08:26:05;;;;;;;9.68;6.55;;;;;;;2.26;81.99;100554.48;1784921;80;21574;-76
2021/12/17 08:28:19;;;;;;;9.33;6.90;;;;;;;2.26;82.17;100548.02;1783595;80;21014;-74
2021/12/17 08:30:48;;;;;;;10.10;7.15;;;;;;;2.30;82.24;100550.92;1784187;80;20998;-73
2021/12/17 08:33:21;;;;;;;11.45;8.23;;;;;;;2.35;82.38;100552.09;1783717;80;20904;-73
2021/12/17 08:35:50;;;;;;;13.03;8.85;;;;;;;2.41;82.36;100550.19;1783482;80;21042;-74
2021/12/17 08:38:25;;;;;;;12.70;8.43;;;;;;;2.43;82.07;100547.56;1783606;80;21145;-74
2021/12/17 08:40:54;;;;;;;11.30;8.33;;;;;;;2.42;82.02;100544.14;1783648;80;20896;-75
2021/12/17 08:43:22;;;;;;;11.55;8.48;;;;;;;2.43;81.95;100532.88;1783545;80;20940;-74
2021/12/17 08:45:53;;;;;;;9.45;6.28;;;;;;;2.44;81.79;100535.02;1783540;80;20928;-74
2021/12/17 08:48:39;;;;;;;8.80;6.47;;;;;;;2.44;81.90;100531.97;1783590;80;20888;-75
2021/12/17 08:51:11;;;;;;;7.25;4.87;;;;;;;2.46;82.02;100526.77;1759272;80;21078;-74
2021/12/17 08:53:40;;;;;;;21.50;14.45;;;;;;;2.50;81.99;100519.32;1783013;80;20979;-73
2021/12/17 08:56:07;;;;;;;23.42;15.55;;;;;;;2.54;82.13;100518.34;1783649;80;20912;-75
2021/12/17 08:58:35;;;;;;;13.08;8.18;;;;;;;2.62;82.05;100519.41;1783662;80;20869;-75
2021/12/17 09:01:04;;;;;;;6.12;5.55;;;;;;;2.69;82.17;100518.33;1783518;80;20927;-74
2021/12/17 09:03:33;;;;;;;8.80;5.12;;;;;;;2.73;81.91;100516.06;1783539;80;21566;-74
2021/12/17 09:06:02;;;;;;;7.70;6.25;;;;;;;2.72;81.91;100515.67;1782320;80;20916;-75
2021/12/17 09:08:30;;;;;;;7.42;6.55;;;;;;;2.77;81.79;100516.83;1782512;80;20948;-75
2021/12/17 09:10:59;;;;;;;10.90;8.30;;;;;;;2.81;81.55;100521.87;1783598;80;20982;-74
2021/12/17 09:13:47;;;;;;;9.50;7.72;;;;;;;2.82;81.45;100520.96;1783092;80;20960;-76
2021/12/17 09:16:14;;;;;;;6.53;5.47;;;;;;;2.83;81.40;100521.84;1783296;80;21128;-76
2021/12/17 09:18:44;;;;;;;8.33;5.22;;;;;;;2.84;81.41;100523.06;1783430;80;20932;-76
2021/12/17 09:21:16;;;;;;;5.75;5.05;;;;;;;2.84;81.36;100516.59;1781865;80;20912;-77
2021/12/17 09:24:01;;;;;;;7.10;5.47;;;;;;;2.84;81.30;100514.00;1783479;80;20910;-75
2021/12/17 09:26:32;;;;;;;6.65;5.80;;;;;;;2.85;81.43;100507.09;1783128;80;20857;-76
2021/12/17 09:29:00;;;;;;;7.05;5.15;;;;;;;2.90;81.41;100500.88;1783526;80;21087;-74
2021/12/17 09:31:27;;;;;;;6.42;5.42;;;;;;;2.94;81.21;100494.33;1783561;80;20956;-75
2021/12/17 09:33:54;;;;;;;8.38;6.20;;;;;;;2.94;81.09;100493.87;1783613;80;20892;-76
2021/12/17 09:36:22;;;;;;;8.63;7.03;;;;;;;2.94;80.92;100486.09;1783476;80;20861;-75
2021/12/17 09:38:49;;;;;;;7.97;5.87;;;;;;;2.93;80.78;100490.86;1783501;80;21472;-74
2021/12/17 09:41:21;;;;;;;6.58;5.75;;;;;;;2.93;80.61;100484.84;1783785;80;22103;-74
2021/12/17 09:43:48;;;;;;;6.58;5.00;;;;;;;2.90;80.39;100486.62;1783441;80;21018;-74
2021/12/17 09:46:15;;;;;;;6.97;5.12;;;;;;;2.88;80.56;100480.64;1783818;80;20872;-72
2021/12/17 09:48:43;;;;;;;10.25;4.85;;;;;;;2.86;80.75;100468.19;1783644;80;20876;-74
2021/12/17 09:51:11;;;;;;;5.10;4.55;;;;;;;2.89;80.89;100468.53;1753479;80;20979;-74
2021/12/17 09:53:38;;;;;;;6.17;5.40;;;;;;;2.91;81.04;100465.45;1783481;80;21456;-73
2021/12/17 09:56:05;;;;;;;6.97;4.85;;;;;;;2.99;81.22;100462.64;1784058;80;20912;-75
2021/12/17 09:58:34;;;;;;;4.78;4.05;;;;;;;3.07;81.23;100461.97;1783725;80;20904;-73
2021/12/17 10:01:01;;;;;;;4.67;4.03;;;;;;;3.13;81.25;100455.27;1783467;80;20928;-74
2021/12/17 10:03:29;;;;;;;4.80;3.98;;;;;;;3.18;81.13;100455.99;1783554;80;21376;-76
2021/12/17 10:05:56;;;;;;;4.55;4.12;;;;;;;3.15;80.87;100457.37;1783556;80;21143;-75
2021/12/17 10:08:24;;;;;;;5.22;4.42;;;;;;;3.14;80.89;100454.84;1783425;80;21425;-74
2021/12/17 10:11:01;;;;;;;6.78;4.53;;;;;;;3.19;80.95;100460.72;1783860;80;20888;-76
2021/12/17 10:13:31;;;;;;;6.08;4.30;;;;;;;3.21;80.87;100459.77;1783588;80;20904;-79
2021/12/17 10:16:08;;;;;;;6.05;4.80;;;;;;;3.22;80.69;100452.38;1783790;80;20869;-76
2021/12/17 10:18:42;;;;;;;6.05;4.92;;;;;;;3.18;80.57;100459.88;1783529;80;20961;-74
2021/12/17 10:21:12;;;;;;;5.75;4.30;;;;;;;3.14;80.67;100456.14;1783697;80;20983;-75
2021/12/17 10:23:41;;;;;;;5.72;4.75;;;;;;;3.12;80.82;100456.18;1783532;80;20892;-77
2021/12/17 10:26:14;;;;;;;6.50;4.42;;;;;;;3.08;80.77;100450.69;1783194;80;21505;-75
2021/12/17 10:28:56;;;;;;;4.70;3.98;;;;;;;2.99;80.79;100449.23;1780686;80;20896;-76
2021/12/17 10:31:23;;;;;;;4.85;3.98;;;;;;;2.93;80.93;100447.28;1774869;80;21146;-76
2021/12/17 10:33:52;;;;;;;4.25;3.80;;;;;;;2.87;81.14;100444.00;1775189;80;20877;-76
2021/12/17 10:36:33;;;;;;;5.10;3.87;;;;;;;2.85;81.27;100439.31;1775533;80;20951;-76
2021/12/17 10:39:03;;;;;;;4.97;3.60;;;;;;;2.86;81.56;100433.23;1775064;80;21019;-76
2021/12/17 10:41:32;;;;;;;3.50;2.92;;;;;;;2.85;81.72;100422.94;1775590;80;21006;-76
2021/12/17 10:44:07;;;;;;;3.10;2.72;;;;;;;2.86;81.72;100419.44;1775267;80;21549;-76
2021/12/17 10:46:45;;;;;;;3.67;3.37;;;;;;;2.82;81.73;100426.89;1775521;80;20861;-77
2021/12/17 10:54:19;;;;;;;2.87;2.58;;;;;;;2.78;81.98;100417.10;1775213;80;21015;-77
2021/12/17 10:56:54;;;;;;;3.27;2.50;;;;;;;2.79;82.11;100416.65;1775302;80;21147;-74
2021/12/17 10:59:24;;;;;;;;;;;;;;;2.76;82.11;100415.00;1777602;80;20897;-75
2021/12/17 11:01:58;;;;;;;3.02;2.70;;;;;;;2.79;82.13;100413.60;1775198;80;20093;-76
2021/12/17 11:04:30;;;;;;;1.90;1.80;;;;;;;2.79;82.24;100413.60;1775228;80;20877;-76
2021/12/17 11:07:01;;;;;;;3.47;2.75;;;;;;;2.83;82.37;100416.50;1775339;80;20980;-76
2021/12/17 11:09:45;;;;;;;2.37;2.17;;;;;;;2.88;82.46;100421.08;1775235;80;21092;-75
2021/12/17 11:12:38;;;;;;;2.42;2.22;;;;;;;2.91;82.43;100412.36;1775396;80;20925;-75
2021/12/17 11:15:30;;;;;;;2.75;2.25;;;;;;;2.90;82.31;100410.68;1775168;80;20924;-74
2021/12/17 11:18:01;;;;;;;4.85;4.05;;;;;;;2.88;81.98;100408.59;1775209;80;20940;-76
2021/12/17 11:20:35;;;;;;;4.50;2.87;;;;;;;2.84;81.99;100405.23;1774513;80;20975;-78
2021/12/17 11:23:11;;;;;;;3.42;2.58;;;;;;;2.81;82.13;100398.87;1775622;80;21127;-76
2021/12/17 11:25:39;;;;;;;3.40;2.75;;;;;;;2.78;82.14;100406.74;1775511;80;20928;-78
2021/12/17 11:28:07;;;;;;;2.80;2.60;;;;;;;2.77;82.36;100404.20;1775391;80;21401;-77
2021/12/17 11:30:37;;;;;;;2.60;2.40;;;;;;;2.78;82.42;100402.86;1774608;80;20917;-76
2021/12/17 11:33:04;;;;;;;2.95;2.65;;;;;;;2.78;82.40;100403.28;1775278;80;21374;-78
2021/12/17 11:35:37;;;;;;;2.72;2.10;;;;;;;2.76;82.34;100397.30;1775218;80;20900;-78
2021/12/17 11:38:15;;;;;;;2.98;2.60;;;;;;;2.76;82.41;100398.59;1775063;80;21378;-78
2021/12/17 11:40:57;;;;;;;1.90;1.80;;;;;;;2.78;82.51;100396.39;1761566;80;20908;-77
2021/12/17 11:43:50;;;;;;;2.17;1.98;;;;;;;2.80;82.42;100397.61;1775125;80;20873;-77
2021/12/17 11:46:13;;;;;;;2.47;2.20;;;;;;;2.79;82.36;100392.89;1774377;80;20865;-76
2021/12/17 11:48:51;;;;;;;2.85;2.22;;;;;;;2.79;82.42;100399.36;1775173;80;21421;-76
2021/12/17 11:51:23;;;;;;;3.08;2.75;;;;;;;2.78;82.41;100399.40;1775175;80;21521;-77
2021/12/17 11:53:59;;;;;;;2.77;2.58;;;;;;;2.77;82.42;100402.90;1775176;80;20964;-78
2021/12/17 11:56:48;;;;;;;2.67;2.47;;;;;;;2.75;82.40;100404.69;1775058;80;20896;-77
2021/12/17 11:59:35;;;;;;;3.17;2.80;;;;;;;2.75;82.46;100397.75;1775249;80;20857;-77
2021/12/17 12:02:16;;;;;;;2.95;2.20;;;;;;;2.72;82.34;100393.98;1774571;80;20944;-77
2021/12/17 12:04:47;;;;;;;2.50;2.30;;;;;;;2.70;82.71;100402.24;1775233;80;20880;-75
2021/12/17 12:07:33;;;;;;;2.98;2.77;;;;;;;2.69;82.86;100397.52;1772671;80;20876;-78
2021/12/17 12:10:19;;;;;;;2.80;2.50;;;;;;;2.70;82.82;100400.49;1775147;80;21453;-76
2021/12/17 12:12:53;;;;;;;3.12;2.62;;;;;;;2.70;82.85;100408.72;1775260;80;20983;-76
2021/12/17 12:15:31;;;;;;;3.08;2.65;;;;;;;2.72;82.85;100406.09;1775294;80;20970;-76
2021/12/17 12:18:06;;;;;;;3.87;3.25;;;;;;;2.74;83.00;100399.96;1775410;80;21413;-74
2021/12/17 12:20:51;;;;;;;2.95;2.67;;;;;;;2.77;82.84;100405.03;1775432;80;21386;-77
2021/12/17 12:23:33;;;;;;;2.90;2.37;;;;;;;2.77;82.72;100410.21;1775345;80;21003;-77
2021/12/17 12:26:11;;;;;;;2.77;2.50;;;;;;;2.77;82.90;100404.20;1775270;80;20940;-75
2021/12/17 12:29:05;;;;;;;2.52;2.33;;;;;;;2.79;82.91;100403.70;1775272;80;21179;-76
2021/12/17 12:31:38;;;;;;;3.05;2.75;;;;;;;2.77;82.80;100403.73;1774825;80;20896;-76
2021/12/17 12:34:12;;;;;;;3.90;3.60;;;;;;;2.78;82.85;100404.58;1775388;80;20920;-77
2021/12/17 12:36:52;;;;;;;;;;;;;;;2.77;82.87;100401.15;1777790;80;20959;-76
2021/12/17 12:39:47;;;;;;;4.75;3.95;;;;;;;2.75;82.73;100406.82;1775559;80;20112;-76
2021/12/17 12:42:23;;;;;;;3.75;3.35;;;;;;;2.72;82.74;100408.67;1775517;80;21208;-74
2021/12/17 12:44:55;;;;;;;3.58;3.27;;;;;;;2.67;82.68;100413.55;1774992;80;20928;-76
2021/12/17 12:47:29;;;;;;;4.20;3.83;;;;;;;2.63;82.61;100413.69;1775053;80;21374;-75
2021/12/17 12:50:13;;;;;;;3.77;3.47;;;;;;;2.61;82.75;100421.48;1775360;80;20853;-74
2021/12/17 12:52:47;;;;;;;3.92;3.62;;;;;;;2.62;82.91;100416.73;1775365;80;21389;-75
2021/12/17 12:55:22;;;;;;;4.05;3.62;;;;;;;2.66;82.93;100414.88;1753594;80;21154;-76
2021/12/17 12:58:05;;;;;;;;;;;;;;;2.66;83.07;100409.70;1777919;80;20945;-75
2021/12/17 13:00:49;;;;;;;4.25;3.92;;;;;;;2.65;83.08;100415.78;1775706;80;20120;-76
2021/12/17 13:03:33;;;;;;;4.58;4.10;;;;;;;2.66;83.14;100417.02;1775174;80;21358;-76
2021/12/17 13:06:01;;;;;;;4.50;4.10;;;;;;;2.67;83.11;100413.55;1775484;80;21381;-75
2021/12/17 13:08:31;;;;;;;5.58;4.85;;;;;;;2.63;83.07;100410.64;1775156;80;21170;-75
2021/12/17 13:11:01;;;;;;;4.72;4.25;;;;;;;2.62;83.09;100410.68;1775341;80;20925;-74
2021/12/17 13:13:35;;;;;;;5.58;4.35;;;;;;;2.59;83.13;100410.78;1775276;80;21445;-76
2021/12/17 13:16:14;;;;;;;4.50;4.10;;;;;;;2.58;83.21;100419.00;1774862;80;21003;-74
2021/12/17 13:24:21;;;;;;;5.25;4.80;;;;;;;2.59;83.52;100429.75;1775304;80;20979;-75
2021/12/17 13:26:54;;;;;;;5.12;4.65;;;;;;;2.59;83.50;100432.79;1775229;80;21529;-77
2021/12/17 13:29:31;;;;;;;4.53;4.13;;;;;;;2.60;83.51;100429.30;1776851;80;21567;-73
2021/12/17 13:32:13;;;;;;;4.70;4.30;;;;;;;2.60;83.46;100436.64;1783508;80;20983;-75
2021/12/17 13:34:46;;;;;;;5.28;4.83;;;;;;;2.59;83.50;100433.63;1782672;80;21120;-74
2021/12/17 13:37:24;;;;;;;5.05;4.50;;;;;;;2.58;83.59;100435.83;1783557;80;21314;-75
2021/12/17 13:40:05;;;;;;;5.70;4.15;;;;;;;2.61;83.70;100431.00;1783595;80;20964;-75
2021/12/17 13:42:39;;;;;;;5.40;4.90;;;;;;;2.64;83.65;100437.37;1783383;80;21381;-75
2021/12/17 13:45:13;;;;;;;5.40;4.35;;;;;;;2.67;83.75;100438.59;1783534;80;20927;-75
2021/12/17 13:47:47;;;;;;;6.47;5.33;;;;;;;2.69;83.60;100436.35;1783488;80;22092;-74
2021/12/17 13:50:30;;;;;;;5.55;4.97;;;;;;;2.68;83.63;100440.27;1782950;80;20892;-76
2021/12/17 13:53:01;;;;;;;4.42;3.95;;;;;;;2.72;83.75;100450.10;1783552;80;20968;-74
2021/12/17 13:55:32;;;;;;;5.42;4.62;;;;;;;2.73;83.72;100442.27;1776261;80;21529;-76
2021/12/17 13:58:01;;;;;;;14.65;6.10;;;;;;;2.72;83.67;100444.92;1781225;80;21424;-74
2021/12/17 14:00:39;;;;;;;7.10;5.03;;;;;;;2.70;83.71;100438.03;1783460;80;21139;-76
2021/12/17 14:03:13;;;;;;;5.33;4.90;;;;;;;2.72;83.84;100435.86;1783713;80;20904;-75
2021/12/17 14:05:50;;;;;;;6.97;4.97;;;;;;;2.71;83.81;100437.58;1783500;80;21322;-76
2021/12/17 14:08:18;;;;;;;6.03;5.40;;;;;;;2.69;83.70;100440.23;1782997;80;20908;-74
2021/12/17 14:10:46;;;;;;;7.37;6.10;;;;;;;2.71;83.95;100450.52;1782988;80;20983;-74
2021/12/17 14:13:24;;;;;;;7.70;6.03;;;;;;;2.76;83.98;100446.50;1784343;80;21409;-74
2021/12/17 14:15:53;;;;;;;5.95;5.28;;;;;;;2.79;84.01;100442.54;1783566;80;20963;-79
2021/12/17 14:18:23;;;;;;;7.95;7.15;;;;;;;2.83;83.93;100443.69;1783570;80;20944;-75
2021/12/17 14:20:53;;;;;;;8.80;6.58;;;;;;;2.85;83.88;100444.49;1783539;80;20928;-76
2021/12/17 14:23:23;;;;;;;8.30;6.45;;;;;;;2.83;83.80;100446.28;1783488;80;21452;-75
2021/12/17 14:26:00;;;;;;;10.48;7.25;;;;;;;2.83;83.89;100446.28;1782854;80;21159;-75
2021/12/17 14:28:35;;;;;;;9.00;7.12;;;;;;;2.82;83.85;100438.55;1782259;80;20943;-74
2021/12/17 14:31:14;;;;;;;10.35;7.42;;;;;;;2.80;83.97;100439.91;1777704;80;20869;-73